createdAt,value
2023-04-26T00:00:09.417Z,94199.69
2023-04-26T00:02:37.896Z,94205.94
2023-04-26T00:05:07.161Z,94115.13
2023-04-26T00:07:35.824Z,94200.72
2023-04-26T00:10:03.866Z,94195.47
2023-04-26T00:12:31.774Z,94187.75
2023-04-26T00:15:01.229Z,94191.63
2023-04-26T00:17:31.629Z,94191.34
2023-04-26T00:20:02.410Z,94173.53
2023-04-26T00:22:30.317Z,94179.69
2023-04-26T00:24:58.607Z,94160.81
2023-04-26T00:27:27.499Z,94185.97
2023-04-26T00:29:55.695Z,94179.09
2023-04-26T00:32:24.131Z,94177.75
2023-04-26T00:34:53.751Z,94173.44
2023-04-26T00:37:22.048Z,94169.03
2023-04-26T00:39:50.917Z,94166.22
2023-04-26T00:42:19.622Z,94178.53
2023-04-26T00:44:47.889Z,94172.81
2023-04-26T00:47:16.803Z,94157.22
2023-04-26T00:49:45.983Z,94170.63
2023-04-26T00:52:21.136Z,94170.47
2023-04-26T00:54:51.615Z,94168.00
2023-04-26T00:57:19.725Z,94175.13
2023-04-26T00:59:47.990Z,94174.78
2023-04-26T01:02:16.349Z,94165.81
2023-04-26T01:04:45.922Z,94162.59
2023-04-26T01:07:14.116Z,94170.63
2023-04-26T01:09:45.580Z,94180.22
2023-04-26T01:12:15.116Z,94174.09
2023-04-26T01:14:44.164Z,94175.88
2023-04-26T01:17:12.264Z,94180.50
2023-04-26T01:19:48.768Z,94175.13
2023-04-26T01:22:17.057Z,94178.44
2023-04-26T01:24:48.807Z,94169.78
2023-04-26T01:27:17.285Z,94157.22
2023-04-26T01:29:46.285Z,94160.19
2023-04-26T01:32:14.500Z,94147.31
2023-04-26T01:34:42.562Z,94141.97
2023-04-26T01:37:10.942Z,94153.94
2023-04-26T01:39:39.263Z,94156.06
2023-04-26T01:42:08.932Z,94157.84
2023-04-26T01:44:37.342Z,94157.84
2023-04-26T01:47:05.377Z,94070.91
2023-04-26T01:49:35.492Z,94171.59
2023-04-26T01:52:03.792Z,94179.97
2023-04-26T01:54:31.918Z,94172.34
2023-04-26T01:56:59.936Z,94181.16
2023-04-26T01:59:29.354Z,94173.38
2023-04-26T02:01:57.461Z,94169.81
2023-04-26T02:04:25.795Z,94101.53
2023-04-26T02:06:54.184Z,94153.53
2023-04-26T02:09:22.206Z,94137.44
2023-04-26T02:11:50.686Z,94135.38
2023-04-26T02:14:18.644Z,94142.78
2023-04-26T02:16:49.390Z,94146.56
2023-04-26T02:19:17.672Z,94132.78
2023-04-26T02:21:58.025Z,94119.34
2023-04-26T02:24:29.173Z,94132.22
2023-04-26T02:27:03.567Z,94134.59
2023-04-26T02:29:43.828Z,94114.28
2023-04-26T02:32:14.478Z,94149.72
2023-04-26T02:34:43.272Z,94142.69
2023-04-26T02:37:11.599Z,94154.50
2023-04-26T02:39:39.770Z,94152.88
2023-04-26T02:42:11.946Z,94148.97
2023-04-26T02:44:41.143Z,94154.34
2023-04-26T02:47:09.382Z,94136.44
2023-04-26T02:49:38.812Z,94133.88
2023-04-26T02:52:07.451Z,94133.69
2023-04-26T02:54:35.874Z,94135.16
2023-04-26T02:57:04.435Z,94126.16
2023-04-26T02:59:32.764Z,94120.44
2023-04-26T03:02:01.064Z,94081.63
2023-04-26T03:04:30.439Z,94120.44
2023-04-26T03:06:59.907Z,94128.22
2023-04-26T03:09:27.988Z,94129.47
2023-04-26T03:11:56.239Z,94133.09
2023-04-26T03:14:24.423Z,94132.47
2023-04-26T03:16:52.720Z,94121.56
2023-04-26T03:19:21.419Z,94125.91
2023-04-26T03:21:49.510Z,94119.47
2023-04-26T03:24:19.095Z,94115.44
2023-04-26T03:26:47.082Z,94110.34
2023-04-26T03:29:15.246Z,94114.25
2023-04-26T03:31:43.753Z,94111.41
2023-04-26T03:34:11.788Z,94118.75
2023-04-26T03:36:40.003Z,94121.28
2023-04-26T03:39:08.456Z,94127.69
2023-04-26T03:41:39.770Z,94120.78
2023-04-26T03:44:08.288Z,94126.88
2023-04-26T03:46:36.243Z,94104.59
2023-04-26T03:49:06.814Z,94126.22
2023-04-26T03:51:34.898Z,94127.81
2023-04-26T03:54:03.559Z,94137.09
2023-04-26T03:56:32.906Z,94126.47
2023-04-26T03:59:02.678Z,94125.22
2023-04-26T04:01:30.594Z,94122.28
2023-04-26T04:03:58.943Z,94127.75
2023-04-26T04:06:27.378Z,94127.19
2023-04-26T04:08:55.646Z,94132.25
2023-04-26T04:11:23.644Z,94138.19
2023-04-26T04:13:51.606Z,94128.66
2023-04-26T04:16:21.040Z,94143.25
2023-04-26T04:18:49.321Z,94125.88
2023-04-26T04:21:17.679Z,94142.19
2023-04-26T04:23:45.645Z,94144.41
2023-04-26T04:26:14.208Z,94136.88
2023-04-26T04:28:42.627Z,94137.66
2023-04-26T04:31:10.703Z,94148.81
2023-04-26T04:33:40.288Z,94140.03
2023-04-26T04:36:09.759Z,94134.34
2023-04-26T04:38:38.314Z,94108.25
2023-04-26T04:41:09.617Z,94151.66
2023-04-26T04:43:39.793Z,94130.22
2023-04-26T04:46:09.196Z,94141.69
2023-04-26T04:48:40.302Z,94150.25
2023-04-26T04:51:08.288Z,94145.78
2023-04-26T04:53:36.498Z,94138.16
2023-04-26T04:56:04.676Z,94144.28
2023-04-26T04:58:32.641Z,94161.06
2023-04-26T05:01:02.871Z,94149.34
2023-04-26T05:03:31.107Z,94153.56
2023-04-26T05:06:01.433Z,94154.34
2023-04-26T05:08:29.463Z,94146.25
2023-04-26T05:10:57.514Z,94150.72
2023-04-26T05:13:25.729Z,94144.91
2023-04-26T05:15:53.998Z,94150.31
2023-04-26T05:18:22.340Z,94157.91
2023-04-26T05:20:50.483Z,94155.13
2023-04-26T05:23:20.284Z,94160.38
2023-04-26T05:25:48.565Z,94150.31
2023-04-26T05:28:17.081Z,94165.63
2023-04-26T05:30:45.025Z,94155.59
2023-04-26T05:33:14.223Z,94106.38
2023-04-26T05:35:42.164Z,94157.78
2023-04-26T05:38:10.309Z,94178.56
2023-04-26T05:40:40.317Z,94162.69
2023-04-26T05:43:08.593Z,94174.44
2023-04-26T05:45:36.633Z,94172.28
2023-04-26T05:48:05.075Z,94177.78
2023-04-26T05:50:33.372Z,94172.03
2023-04-26T05:53:01.303Z,94132.25
2023-04-26T05:55:29.460Z,94173.91
2023-04-26T05:57:58.860Z,94175.06
2023-04-26T06:00:27.436Z,94175.13
2023-04-26T06:02:55.523Z,94166.00
2023-04-26T06:05:24.038Z,94152.34
2023-04-26T06:07:52.469Z,94174.81
2023-04-26T06:10:20.946Z,94176.75
2023-04-26T06:12:50.719Z,94180.72
2023-04-26T06:15:20.321Z,94173.75
2023-04-26T06:17:48.380Z,94181.84
2023-04-26T06:20:16.692Z,94180.75
2023-04-26T06:22:44.733Z,94182.13
2023-04-26T06:25:14.248Z,94173.34
2023-04-26T06:27:42.529Z,94178.59
2023-04-26T06:30:11.608Z,94178.59
2023-04-26T06:32:42.986Z,94139.38
2023-04-26T06:35:12.103Z,94149.91
2023-04-26T06:37:40.303Z,94181.47
2023-04-26T06:40:09.801Z,94188.19
2023-04-26T06:42:38.185Z,94179.69
2023-04-26T06:45:07.039Z,94170.56
2023-04-26T06:47:35.051Z,94163.41
2023-04-26T06:50:06.020Z,94160.06
2023-04-26T06:52:34.015Z,94148.19
2023-04-26T06:55:03.376Z,94149.75
2023-04-26T06:57:31.722Z,94156.88
2023-04-26T06:59:59.795Z,94151.56
2023-04-26T07:02:28.015Z,94157.78
2023-04-26T07:04:57.904Z,94164.78
2023-04-26T07:07:27.712Z,94164.38
2023-04-26T07:09:55.787Z,94155.66
2023-04-26T07:12:24.058Z,94162.75
2023-04-26T07:14:51.973Z,94121.66
2023-04-26T07:17:19.952Z,94160.78
2023-04-26T07:19:48.320Z,94179.34
2023-04-26T07:22:16.439Z,94168.03
2023-04-26T07:24:45.987Z,94172.22
2023-04-26T07:27:14.253Z,94180.69
2023-04-26T07:29:42.753Z,94169.03
2023-04-26T07:32:11.476Z,94164.59
2023-04-26T07:34:39.565Z,94184.88
2023-04-26T07:37:08.518Z,94189.53
2023-04-26T07:39:37.626Z,94191.06
2023-04-26T07:42:07.586Z,94187.44
2023-04-26T07:44:36.028Z,94189.47
2023-04-26T07:47:04.256Z,94184.41
2023-04-26T07:49:32.267Z,94184.44
2023-04-26T07:52:02.501Z,94191.53
2023-04-26T07:54:31.131Z,94189.75
2023-04-26T07:56:59.472Z,94192.81
2023-04-26T07:59:29.177Z,94186.63
2023-04-26T08:01:57.448Z,94180.69
2023-04-26T08:04:34.112Z,94191.84
2023-04-26T08:07:03.007Z,94197.03
2023-04-26T08:09:32.336Z,94200.53
2023-04-26T08:12:00.457Z,94194.31
2023-04-26T08:14:31.072Z,94211.88
2023-04-26T08:16:59.041Z,94197.78
2023-04-26T08:19:29.434Z,94206.47
2023-04-26T08:21:57.527Z,94191.78
2023-04-26T08:24:25.552Z,94208.91
2023-04-26T08:26:53.830Z,94197.53
2023-04-26T08:29:24.439Z,94201.69
2023-04-26T08:31:54.261Z,94193.78
2023-04-26T08:34:22.346Z,94205.16
2023-04-26T08:36:51.586Z,94191.97
2023-04-26T08:39:20.134Z,94203.34
2023-04-26T08:41:54.092Z,94195.44
2023-04-26T08:44:25.150Z,94192.44
2023-04-26T08:47:02.887Z,94133.28
2023-04-26T08:49:41.067Z,94155.56
2023-04-26T08:52:12.081Z,94117.22
2023-04-26T08:54:41.701Z,94204.94
2023-04-26T08:57:10.173Z,94191.84
2023-04-26T08:59:39.317Z,94199.03
2023-04-26T09:02:11.362Z,94201.75
2023-04-26T09:04:40.609Z,94194.56
2023-04-26T09:07:14.600Z,94170.56
2023-04-26T09:09:43.899Z,94204.22
2023-04-26T09:12:11.763Z,94210.41
2023-04-26T09:14:40.366Z,94211.66
2023-04-26T09:17:26.283Z,94208.41
2023-04-26T09:19:54.354Z,94207.94
2023-04-26T09:22:33.481Z,94208.44
2023-04-26T09:25:02.374Z,94208.44
2023-04-26T09:27:35.881Z,94204.22
2023-04-26T09:30:09.712Z,94212.88
2023-04-26T09:32:50.434Z,94202.97
2023-04-26T09:35:32.692Z,94215.56
2023-04-26T09:38:10.441Z,94209.16
2023-04-26T09:40:44.557Z,94210.66
2023-04-26T09:43:13.577Z,94212.88
2023-04-26T09:45:50.525Z,94206.97
2023-04-26T09:48:25.889Z,94213.09
2023-04-26T09:50:55.771Z,94197.75
2023-04-26T09:53:28.746Z,94207.34
2023-04-26T09:55:57.388Z,94198.94
2023-04-26T09:58:25.698Z,94205.34
2023-04-26T10:00:54.719Z,94203.63
2023-04-26T10:03:24.882Z,94202.94
2023-04-26T10:05:53.375Z,94204.94
2023-04-26T10:08:21.395Z,94205.16
2023-04-26T10:10:50.820Z,94198.28
2023-04-26T10:13:20.480Z,94192.50
2023-04-26T10:15:49.194Z,94200.00
2023-04-26T10:18:17.822Z,94200.47
2023-04-26T10:20:53.193Z,94198.94
2023-04-26T10:23:25.856Z,94194.03
2023-04-26T10:25:54.479Z,94187.53
2023-04-26T10:29:01.944Z,94191.78
2023-04-26T10:32:05.431Z,94192.56
2023-04-26T10:34:36.785Z,94172.75
2023-04-26T10:37:10.826Z,94190.09
2023-04-26T10:39:39.699Z,94122.31
2023-04-26T10:42:26.627Z,94191.34
2023-04-26T10:44:56.641Z,94181.44
2023-04-26T10:47:32.005Z,94186.91
2023-04-26T10:50:06.246Z,94178.69
2023-04-26T10:52:36.667Z,94188.59
2023-04-26T10:55:06.521Z,94190.38
2023-04-26T10:57:52.174Z,94190.59
2023-04-26T11:00:30.883Z,94181.69
2023-04-26T11:03:04.331Z,94179.72
2023-04-26T11:05:55.483Z,94129.44
2023-04-26T11:08:30.352Z,94190.34
2023-04-26T11:11:10.314Z,94188.78
2023-04-26T11:13:40.148Z,94189.31
2023-04-26T11:16:10.014Z,94193.97
2023-04-26T11:18:40.369Z,94180.81
2023-04-26T11:21:09.302Z,94183.56
2023-04-26T11:23:38.964Z,94183.81
2023-04-26T11:26:08.884Z,94189.50
2023-04-26T11:28:39.420Z,94189.75
2023-04-26T11:31:09.032Z,94181.97
2023-04-26T11:33:37.211Z,94185.66
2023-04-26T11:36:05.776Z,94183.78
2023-04-26T11:38:34.515Z,94197.19
2023-04-26T11:41:05.560Z,94189.41
2023-04-26T11:43:37.144Z,94187.16
2023-04-26T11:46:06.913Z,94184.47
2023-04-26T11:48:36.744Z,94164.19
2023-04-26T11:51:07.854Z,94181.69
2023-04-26T11:53:40.623Z,94172.63
2023-04-26T11:56:22.036Z,94139.91
2023-04-26T11:58:52.099Z,94178.72
2023-04-26T12:01:24.639Z,94181.66
2023-04-26T12:03:54.237Z,94167.88
2023-04-26T12:06:29.234Z,94164.72
2023-04-26T12:08:58.528Z,94175.19
2023-04-26T12:11:28.869Z,94170.09
2023-04-26T12:13:59.669Z,94178.31
2023-04-26T12:16:28.080Z,94176.25
2023-04-26T12:18:59.484Z,94161.72
2023-04-26T12:21:30.315Z,94163.13
2023-04-26T12:23:58.880Z,94170.22
2023-04-26T12:29:21.269Z,94166.34
2023-04-26T12:31:49.837Z,94151.00
2023-04-26T12:34:17.932Z,94160.66
2023-04-26T12:36:46.549Z,94166.59
2023-04-26T12:39:15.924Z,94150.97
2023-04-26T12:41:44.493Z,94160.59
2023-04-26T12:44:14.611Z,94145.06
2023-04-26T12:46:44.469Z,94166.31
2023-04-26T12:49:12.440Z,94161.84
2023-04-26T12:51:40.972Z,94147.72
2023-04-26T12:54:09.589Z,94169.72
2023-04-26T12:56:43.857Z,94154.19
2023-04-26T12:59:12.285Z,94146.00
2023-04-26T13:01:40.615Z,94157.91
2023-04-26T13:04:11.038Z,94164.38
2023-04-26T13:06:39.949Z,94161.88
2023-04-26T13:09:08.654Z,94173.03
2023-04-26T13:11:38.404Z,94165.63
2023-04-26T13:14:07.886Z,94176.50
2023-04-26T13:16:36.497Z,94179.22
2023-04-26T13:19:04.902Z,94177.75
2023-04-26T13:21:34.275Z,94187.63
2023-04-26T13:24:02.362Z,94197.78
2023-04-26T13:26:30.430Z,94189.06
2023-04-26T13:28:58.768Z,94208.34
2023-04-26T13:31:27.013Z,94197.31
2023-04-26T13:33:55.218Z,94201.09
2023-04-26T13:36:23.271Z,94194.50
2023-04-26T13:38:52.590Z,94200.44
2023-04-26T13:41:20.797Z,94197.00
2023-04-26T13:43:48.893Z,94207.16
2023-04-26T13:46:16.915Z,94199.00
2023-04-26T13:48:45.092Z,94207.22
2023-04-26T13:51:15.572Z,94215.88
2023-04-26T13:53:43.941Z,94218.31
2023-04-26T13:56:13.436Z,94217.06
2023-04-26T13:58:43.956Z,94222.50
2023-04-26T14:01:15.628Z,94236.81
2023-04-26T14:03:43.876Z,94220.41
2023-04-26T14:06:12.645Z,94235.31
2023-04-26T14:08:42.213Z,94237.75
2023-04-26T14:11:12.123Z,94243.94
2023-04-26T14:13:42.445Z,94240.53
2023-04-26T14:16:12.776Z,94237.38
2023-04-26T14:18:45.189Z,94229.34
2023-04-26T14:21:14.661Z,94253.53
2023-04-26T14:23:42.829Z,94250.59
2023-04-26T14:26:10.949Z,94236.91
2023-04-26T14:28:39.347Z,94240.91
2023-04-26T14:31:09.396Z,94244.25
2023-04-26T14:33:37.589Z,94253.44
2023-04-26T14:36:06.204Z,94268.25
2023-04-26T14:38:34.332Z,94261.59
2023-04-26T14:41:03.074Z,94279.13
2023-04-26T14:43:31.445Z,94277.28
2023-04-26T14:45:59.500Z,94273.50
2023-04-26T14:48:29.049Z,94263.41
2023-04-26T14:50:59.793Z,94286.28
2023-04-26T14:53:28.575Z,94244.63
2023-04-26T14:55:57.650Z,94294.31
2023-04-26T14:58:26.312Z,94300.28
2023-04-26T15:00:54.925Z,94297.94
2023-04-26T15:03:23.214Z,94307.72
2023-04-26T15:05:52.699Z,94305.25
2023-04-26T15:08:20.937Z,94303.88
2023-04-26T15:10:48.958Z,94300.06
2023-04-26T15:13:17.429Z,94335.41
2023-04-26T15:15:45.599Z,94322.69
2023-04-26T15:18:13.632Z,94324.50
2023-04-26T15:20:41.987Z,94334.78
2023-04-26T15:23:11.905Z,94332.88
2023-04-26T15:25:40.132Z,94335.31
2023-04-26T15:28:08.640Z,94338.69
2023-04-26T15:30:37.219Z,94339.13
2023-04-26T15:33:06.914Z,94340.63
2023-04-26T15:35:36.812Z,94278.63
2023-04-26T15:38:04.799Z,94342.00
2023-04-26T15:40:35.774Z,94346.59
2023-04-26T15:43:04.910Z,94360.84
2023-04-26T15:45:32.940Z,94351.09
2023-04-26T15:48:01.325Z,94361.13
2023-04-26T15:50:29.282Z,94354.56
2023-04-26T15:52:58.267Z,94358.16
2023-04-26T15:55:26.364Z,94366.59
2023-04-26T15:57:55.961Z,94359.28
2023-04-26T16:00:24.177Z,94367.09
2023-04-26T16:02:52.859Z,94366.81
2023-04-26T16:05:21.032Z,94379.84
2023-04-26T16:07:49.226Z,94377.25
2023-04-26T16:10:17.187Z,94378.22
2023-04-26T16:12:45.151Z,94384.16
2023-04-26T16:15:14.940Z,94377.94
2023-04-26T16:17:43.329Z,94394.94
2023-04-26T16:20:12.011Z,94403.03
2023-04-26T16:22:39.994Z,94400.16
2023-04-26T16:25:08.989Z,94403.63
2023-04-26T16:27:37.664Z,94412.31
2023-04-26T16:30:06.804Z,94369.44
2023-04-26T16:32:36.438Z,94407.69
2023-04-26T16:35:04.781Z,94414.81
2023-04-26T16:37:33.025Z,94411.47
2023-04-26T16:40:01.382Z,94415.97
2023-04-26T16:42:31.249Z,94418.38
2023-04-26T16:44:59.946Z,94428.88
2023-04-26T16:47:28.056Z,94430.53
2023-04-26T16:49:57.424Z,94421.09
2023-04-26T16:52:25.829Z,94433.47
2023-04-26T16:54:54.105Z,94442.69
2023-04-26T16:57:23.441Z,94449.13
2023-04-26T16:59:51.791Z,94458.78
2023-04-26T17:02:20.634Z,94434.59
2023-04-26T17:04:48.885Z,94437.28
2023-04-26T17:07:20.076Z,94449.63
2023-04-26T17:09:48.366Z,94456.34
2023-04-26T17:12:16.533Z,94453.19
2023-04-26T17:14:44.523Z,94469.22
2023-04-26T17:17:12.957Z,94483.44
2023-04-26T17:19:40.989Z,94474.94
2023-04-26T17:22:09.110Z,94484.84
2023-04-26T17:24:38.940Z,94485.78
2023-04-26T17:27:07.065Z,94484.91
2023-04-26T17:29:35.557Z,94485.31
2023-04-26T17:32:03.622Z,94491.47
2023-04-26T17:34:32.806Z,94391.00
2023-04-26T17:37:00.930Z,94491.56
2023-04-26T17:39:29.005Z,94505.84
2023-04-26T17:41:58.334Z,94500.63
2023-04-26T17:44:26.670Z,94505.13
2023-04-26T17:46:54.929Z,94507.94
2023-04-26T17:49:25.686Z,94519.88
2023-04-26T17:51:53.764Z,94532.94
2023-04-26T17:54:21.773Z,94529.88
2023-04-26T17:56:50.347Z,94527.16
2023-04-26T17:59:19.590Z,94534.66
2023-04-26T18:01:48.180Z,94534.09
2023-04-26T18:04:16.509Z,94552.09
2023-04-26T18:06:45.155Z,94548.97
2023-04-26T18:09:13.440Z,94539.06
2023-04-26T18:11:41.428Z,94557.00
2023-04-26T18:14:09.741Z,94571.56
2023-04-26T18:16:39.364Z,94565.28
2023-04-26T18:19:07.441Z,94566.16
2023-04-26T18:21:35.788Z,94566.66
2023-04-26T18:24:04.096Z,94586.53
2023-04-26T18:26:32.128Z,94582.19
2023-04-26T18:29:00.483Z,94576.88
2023-04-26T18:31:32.452Z,94593.28
2023-04-26T18:34:04.009Z,94584.53
2023-04-26T18:36:32.443Z,94581.34
2023-04-26T18:39:01.107Z,94574.31
2023-04-26T18:41:29.742Z,94588.78
2023-04-26T18:44:01.178Z,94592.34
2023-04-26T18:46:30.585Z,94592.00
2023-04-26T18:48:58.710Z,94587.69
2023-04-26T18:51:28.639Z,94590.56
2023-04-26T18:53:57.248Z,94592.13
2023-04-26T18:56:25.667Z,94589.97
2023-04-26T18:58:53.590Z,94600.78
2023-04-26T19:01:21.858Z,94597.41
2023-04-26T19:03:50.203Z,94595.56
2023-04-26T19:06:19.838Z,94596.13
2023-04-26T19:08:49.510Z,94604.25
2023-04-26T19:11:17.475Z,94614.63
2023-04-26T19:13:45.601Z,94615.47
2023-04-26T19:16:13.796Z,94609.38
2023-04-26T19:18:45.359Z,94603.88
2023-04-26T19:21:13.378Z,94623.03
2023-04-26T19:23:41.742Z,94565.53
2023-04-26T19:26:13.372Z,94621.44
2023-04-26T19:28:42.384Z,94625.53
2023-04-26T19:31:10.832Z,94623.38
2023-04-26T19:33:40.661Z,94629.88
2023-04-26T19:36:10.349Z,94625.78
2023-04-26T19:38:38.362Z,94625.50
2023-04-26T19:41:06.462Z,94620.06
2023-04-26T19:43:36.236Z,94632.38
2023-04-26T19:46:12.593Z,94627.31
2023-04-26T19:48:40.745Z,94629.00
2023-04-26T19:51:08.901Z,94630.34
2023-04-26T19:53:36.916Z,94640.53
2023-04-26T19:56:05.072Z,94636.09
2023-04-26T19:58:33.321Z,94639.03
2023-04-26T20:01:03.695Z,94637.41
2023-04-26T20:03:33.102Z,94637.84
2023-04-26T20:06:01.565Z,94645.72
2023-04-26T20:08:31.411Z,94643.66
2023-04-26T20:11:03.576Z,94645.41
2023-04-26T20:13:31.873Z,94644.34
2023-04-26T20:16:00.045Z,94650.69
2023-04-26T20:18:30.800Z,94644.06
2023-04-26T20:20:59.039Z,94643.50
2023-04-26T20:23:27.333Z,94646.03
2023-04-26T20:25:55.412Z,94647.44
2023-04-26T20:28:24.511Z,94645.19
2023-04-26T20:30:53.155Z,94651.19
2023-04-26T20:33:21.350Z,94648.44
2023-04-26T20:35:50.752Z,94654.41
2023-04-26T20:38:18.911Z,94649.25
2023-04-26T20:40:46.911Z,94653.97
2023-04-26T20:43:15.323Z,94668.47
2023-04-26T20:45:44.557Z,94661.28
2023-04-26T20:48:12.752Z,94672.78
2023-04-26T20:50:40.868Z,94670.91
2023-04-26T20:53:10.701Z,94663.19
2023-04-26T20:55:39.037Z,94668.59
2023-04-26T20:58:07.137Z,94675.19
2023-04-26T21:00:35.305Z,94674.84
2023-04-26T21:03:04.699Z,94677.94
2023-04-26T21:05:32.998Z,94682.59
2023-04-26T21:08:01.075Z,94677.75
2023-04-26T21:10:32.205Z,94692.31
2023-04-26T21:13:00.216Z,94697.47
2023-04-26T21:15:28.411Z,94702.00
2023-04-26T21:17:56.869Z,94701.66
2023-04-26T21:20:24.976Z,94705.59
2023-04-26T21:22:56.336Z,94705.41
2023-04-26T21:25:31.371Z,94700.69
2023-04-26T21:28:01.691Z,94712.81
2023-04-26T21:30:29.986Z,94714.34
2023-04-26T21:32:57.914Z,94716.28
2023-04-26T21:35:26.552Z,94715.13
2023-04-26T21:37:54.508Z,94704.16
2023-04-26T21:40:22.504Z,94723.38
2023-04-26T21:43:03.938Z,94655.88
2023-04-26T21:45:34.219Z,94726.97
2023-04-26T21:48:02.541Z,94732.09
2023-04-26T21:50:31.969Z,94733.88
2023-04-26T21:53:00.232Z,94739.03
2023-04-26T21:55:28.200Z,94743.53
2023-04-26T21:57:56.198Z,94731.22
2023-04-26T22:00:24.555Z,94740.81
2023-04-26T22:02:54.448Z,94730.31
2023-04-26T22:05:26.155Z,94731.50
2023-04-26T22:07:54.772Z,94750.75
2023-04-26T22:10:23.334Z,94762.31
2023-04-26T22:12:51.553Z,94747.63
2023-04-26T22:15:20.001Z,94753.75
2023-04-26T22:17:48.116Z,94762.47
2023-04-26T22:20:18.443Z,94749.84
2023-04-26T22:22:46.574Z,94764.00
2023-04-26T22:25:14.559Z,94762.78
2023-04-26T22:27:42.715Z,94743.88
2023-04-26T22:30:24.935Z,94767.44
2023-04-26T22:32:55.697Z,94776.00
2023-04-26T22:35:25.765Z,94784.44
2023-04-26T22:37:53.826Z,94767.03
2023-04-26T22:40:23.386Z,94775.13
2023-04-26T22:42:54.568Z,94779.31
2023-04-26T22:45:23.100Z,94787.13
2023-04-26T22:47:51.297Z,94781.41
2023-04-26T22:50:19.934Z,94790.31
2023-04-26T22:52:49.945Z,94790.28
2023-04-26T22:55:18.325Z,94785.66
2023-04-26T22:57:47.986Z,94785.03
2023-04-26T23:00:16.701Z,94781.72
2023-04-26T23:02:45.321Z,94789.25
2023-04-26T23:05:13.849Z,94792.25
2023-04-26T23:07:42.516Z,94727.66
2023-04-26T23:10:12.590Z,94795.84
2023-04-26T23:12:41.372Z,94782.78
2023-04-26T23:15:10.508Z,94784.69
2023-04-26T23:17:39.126Z,94751.00
2023-04-26T23:20:12.380Z,94779.88
2023-04-26T23:22:44.486Z,94772.69
2023-04-26T23:25:13.885Z,94776.88
2023-04-26T23:27:42.609Z,94763.97
2023-04-26T23:30:11.895Z,94773.88
2023-04-26T23:32:39.977Z,94761.25
2023-04-26T23:35:08.911Z,94757.34
2023-04-26T23:37:36.992Z,94760.94
2023-04-26T23:40:08.004Z,94768.75
2023-04-26T23:42:37.777Z,94768.44
2023-04-26T23:45:08.016Z,94770.38
2023-04-26T23:47:36.441Z,94763.66
2023-04-26T23:50:04.899Z,94764.41
2023-04-26T23:52:33.221Z,94778.03
2023-04-26T23:55:01.389Z,94770.38
2023-04-26T23:57:29.795Z,94781.69
2023-04-26T23:59:59.798Z,94777.34
